Time;durP1;ratioP1;P1;durP2;ratioP2;P2;SDS_P1;SDS_P2;PMS_P1;PMS_P2;Temp;Humidity;BMP_temperature;BMP_pressure;BME280_temperature;BME280_humidity;BME280_pressure;Samples;Min_cycle;Max_cycle;Signal;HPM_P1;HPM_P2
2022/04/14 00:01:24;;;;;;;39.42;30.58;;;13.50;81.40;;;;;;5023350;28;20445;-60
2022/04/14 00:03:50;;;;;;;37.90;29.40;;;13.50;81.50;;;;;;5028804;28;20330;-60
2022/04/14 00:06:15;;;;;;;38.60;30.77;;;13.50;81.50;;;;;;5028532;28;20481;-60
2022/04/14 00:08:41;;;;;;;36.65;29.20;;;13.40;81.50;;;;;;5026310;28;20037;-60
2022/04/14 00:11:07;;;;;;;40.00;30.05;;;13.40;81.50;;;;;;5027139;28;20042;-60
2022/04/14 00:13:32;;;;;;;35.72;28.10;;;13.40;81.60;;;;;;5028582;28;20037;-60
2022/04/14 00:15:58;;;;;;;39.00;30.13;;;13.40;81.60;;;;;;5024341;28;20026;-59
2022/04/14 00:18:24;;;;;;;41.50;33.08;;;13.40;81.80;;;;;;5026265;28;20478;-59
2022/04/14 00:20:49;;;;;;;38.38;30.33;;;13.40;82.10;;;;;;5027962;28;20057;-59
2022/04/14 00:23:15;;;;;;;36.88;30.63;;;13.40;82.20;;;;;;5025642;28;20060;-60
2022/04/14 00:25:41;;;;;;;40.70;31.17;;;13.40;82.40;;;;;;5029098;28;20033;-60
2022/04/14 00:28:06;;;;;;;39.00;29.83;;;13.40;82.50;;;;;;5022778;28;20045;-60
2022/04/14 00:30:32;;;;;;;38.25;29.70;;;13.40;82.50;;;;;;5030143;28;20089;-60
2022/04/14 00:32:58;;;;;;;40.13;29.88;;;13.40;82.50;;;;;;5028271;28;20120;-60
2022/04/14 00:35:23;;;;;;;39.55;30.63;;;13.40;82.60;;;;;;5045983;28;20045;-60
2022/04/14 00:37:49;;;;;;;39.33;30.35;;;13.40;82.70;;;;;;5045590;28;20033;-59
2022/04/14 00:40:15;;;;;;;39.58;30.50;;;13.40;82.80;;;;;;5047680;28;20028;-59
2022/04/14 00:42:40;;;;;;;44.33;30.15;;;13.50;82.90;;;;;;5022264;28;20033;-60
2022/04/14 00:45:07;;;;;;;42.85;29.90;;;13.40;82.90;;;;;;5043733;28;20477;-59
2022/04/14 00:47:34;;;;;;;39.05;28.50;;;13.40;83.00;;;;;;5048480;28;20032;-60
2022/04/14 00:50:01;;;;;;;44.50;29.30;;;13.40;83.00;;;;;;5041537;28;20096;-59
2022/04/14 00:52:26;;;;;;;46.45;31.38;;;13.40;83.00;;;;;;5048446;28;20106;-59
2022/04/14 00:54:52;;;;;;;42.10;30.55;;;13.40;83.00;;;;;;5046854;28;20084;-60
2022/04/14 00:57:18;;;;;;;51.72;32.15;;;13.40;83.10;;;;;;5033676;28;20037;-59
2022/04/14 00:59:44;;;;;;;46.17;31.63;;;13.40;83.30;;;;;;5046671;28;20463;-59
2022/04/14 01:02:10;;;;;;;43.15;29.83;;;13.40;83.20;;;;;;5011077;28;20172;-60
2022/04/14 01:04:37;;;;;;;46.10;30.38;;;13.40;83.30;;;;;;5037086;28;20520;-60
2022/04/14 01:07:06;;;;;;;53.05;32.95;;;13.40;83.20;;;;;;5045150;28;20407;-59
2022/04/14 01:09:34;;;;;;;47.33;32.40;;;13.40;83.30;;;;;;5044965;28;20045;-60
2022/04/14 01:12:00;;;;;;;55.70;33.90;;;13.40;83.30;;;;;;5044051;28;20056;-60
2022/04/14 01:14:32;;;;;;;52.67;34.65;;;13.40;83.30;;;;;;5027275;28;20052;-59
2022/04/14 01:17:04;;;;;;;58.65;35.63;;;13.40;83.40;;;;;;5047810;28;20025;-60
2022/04/14 01:19:30;;;;;;;59.80;37.27;;;13.40;83.40;;;;;;5038213;28;20145;-59
2022/04/14 01:22:00;;;;;;;60.20;37.53;;;13.40;83.50;;;;;;5047391;28;20029;-60
2022/04/14 01:24:26;;;;;;;64.35;38.33;;;13.40;83.60;;;;;;5047174;28;20025;-60
2022/04/14 01:26:54;;;;;;;61.60;37.85;;;13.40;83.70;;;;;;5046919;28;20037;-60
2022/04/14 01:29:24;;;;;;;71.65;39.30;;;13.40;84.30;;;;;;5047479;28;20379;-60
2022/04/14 01:31:50;;;;;;;63.53;39.40;;;13.40;83.90;;;;;;5045960;28;20392;-60
2022/04/14 01:34:16;;;;;;;68.32;42.42;;;13.30;83.80;;;;;;5049287;28;20056;-60
2022/04/14 01:36:42;;;;;;;70.80;41.78;;;13.30;83.90;;;;;;5023227;28;20380;-59
2022/04/14 01:39:11;;;;;;;76.07;42.40;;;13.30;84.00;;;;;;5045337;28;20041;-59
2022/04/14 01:41:46;;;;;;;66.70;42.20;;;13.30;84.00;;;;;;5022098;28;20029;-59
2022/04/14 01:44:12;;;;;;;65.18;43.38;;;13.30;84.10;;;;;;5029291;28;20029;-60
2022/04/14 01:46:39;;;;;;;66.07;43.33;;;13.30;84.10;;;;;;5033044;28;20419;-60
2022/04/14 01:49:05;;;;;;;70.22;44.80;;;13.30;84.20;;;;;;5028347;28;20032;-60
2022/04/14 01:51:31;;;;;;;63.28;42.63;;;13.30;84.20;;;;;;5025708;28;20041;-60
2022/04/14 01:53:56;;;;;;;72.45;43.60;;;13.20;84.00;;;;;;5044624;28;20150;-59
2022/04/14 01:56:23;;;;;;;68.70;44.17;;;13.20;84.00;;;;;;5012141;28;20057;-60
2022/04/14 01:58:54;;;;;;;72.05;44.63;;;13.20;84.00;;;;;;5050897;28;20025;-59
2022/04/14 02:01:21;;;;;;;69.68;45.97;;;13.20;84.00;;;;;;5046650;28;20314;-59
2022/04/14 02:03:47;;;;;;;63.45;42.58;;;13.10;84.00;;;;;;5046367;28;20067;-60
2022/04/14 02:06:13;;;;;;;60.00;42.75;;;13.10;84.20;;;;;;5047357;28;20063;-59
2022/04/14 02:08:39;;;;;;;56.35;39.83;;;13.10;84.40;;;;;;5029066;28;20048;-60
2022/04/14 02:11:05;;;;;;;53.92;37.53;;;13.10;84.30;;;;;;5046833;28;20033;-59
2022/04/14 02:13:31;;;;;;;55.85;39.28;;;13.10;84.40;;;;;;5048171;28;20021;-60
2022/04/14 02:15:57;;;;;;;59.38;41.33;;;13.10;84.60;;;;;;5030138;28;20033;-60
2022/04/14 02:18:23;;;;;;;57.22;40.00;;;13.10;85.00;;;;;;5048554;28;20021;-59
2022/04/14 02:20:49;;;;;;;58.35;41.97;;;13.10;85.20;;;;;;5038769;28;20430;-59
2022/04/14 02:23:15;;;;;;;55.67;40.33;;;13.10;85.50;;;;;;5042374;28;20272;-59
2022/04/14 02:25:40;;;;;;;66.38;44.30;;;13.10;85.80;;;;;;5041797;28;20232;-60
2022/04/14 02:28:06;;;;;;;55.35;39.92;;;13.10;86.00;;;;;;5036748;28;20060;-59
2022/04/14 02:30:33;;;;;;;57.30;41.38;;;13.10;86.10;;;;;;5040500;28;20805;-59
2022/04/14 02:32:59;;;;;;;62.58;43.60;;;13.10;86.40;;;;;;5027643;28;20452;-59
2022/04/14 02:35:25;;;;;;;59.17;40.85;;;13.10;86.70;;;;;;5041941;28;20049;-59
2022/04/14 02:37:51;;;;;;;65.22;43.13;;;13.10;86.80;;;;;;5047915;28;20033;-59
2022/04/14 02:40:16;;;;;;;68.07;46.08;;;13.10;87.10;;;;;;5019965;28;20165;-59
2022/04/14 02:42:43;;;;;;;59.17;43.53;;;13.10;87.50;;;;;;5024917;28;20511;-60
2022/04/14 02:45:09;;;;;;;67.25;46.20;;;13.10;88.10;;;;;;5041586;28;20037;-60
2022/04/14 02:47:37;;;;;;;68.25;44.13;;;13.10;87.90;;;;;;5033832;28;20033;-59
2022/04/14 02:50:04;;;;;;;58.33;41.35;;;13.10;87.90;;;;;;5047222;28;20383;-59
2022/04/14 02:52:30;;;;;;;60.05;42.05;;;13.10;87.90;;;;;;5034387;28;20025;-60
2022/04/14 02:54:56;;;;;;;58.05;41.17;;;13.10;87.80;;;;;;5049270;28;20380;-59
2022/04/14 02:57:22;;;;;;;63.22;44.45;;;13.10;87.90;;;;;;5048019;28;20029;-59
2022/04/14 02:59:47;;;;;;;60.25;42.00;;;13.10;88.10;;;;;;5030204;28;20033;-59
2022/04/14 03:02:13;;;;;;;60.22;44.22;;;13.00;88.10;;;;;;5040882;28;20117;-59
2022/04/14 03:04:38;;;;;;;56.70;42.78;;;13.00;88.20;;;;;;5048366;28;20033;-60
2022/04/14 03:07:04;;;;;;;57.15;42.45;;;13.00;88.30;;;;;;5039435;28;20041;-59
2022/04/14 03:09:30;;;;;;;68.53;43.58;;;13.00;88.30;;;;;;5045748;28;20033;-59
2022/04/14 03:11:56;;;;;;;57.42;43.25;;;13.00;88.40;;;;;;5047604;28;20472;-59
2022/04/14 03:14:21;;;;;;;59.72;40.40;;;13.00;88.50;;;;;;5046742;28;20407;-60
2022/04/14 03:16:47;;;;;;;55.35;41.03;;;13.00;88.50;;;;;;5029162;28;20033;-60
2022/04/14 03:19:13;;;;;;;54.47;39.47;;;13.00;88.40;;;;;;5043786;28;20047;-60
2022/04/14 03:21:38;;;;;;;51.17;38.35;;;13.00;88.30;;;;;;5024062;28;20056;-59
2022/04/14 03:24:04;;;;;;;50.33;37.90;;;13.00;88.20;;;;;;5047727;28;20040;-60
2022/04/14 03:26:30;;;;;;;50.90;38.72;;;13.00;88.10;;;;;;5045774;28;20033;-59
2022/04/14 03:28:55;;;;;;;47.60;36.85;;;12.90;88.00;;;;;;5017403;28;20516;-60
2022/04/14 03:31:21;;;;;;;47.78;35.90;;;12.90;87.80;;;;;;5040584;28;20040;-60
2022/04/14 03:33:47;;;;;;;42.58;34.00;;;12.90;87.70;;;;;;5040602;28;20463;-60
2022/04/14 03:36:13;;;;;;;44.08;35.00;;;12.90;87.50;;;;;;5039094;28;20041;-60
2022/04/14 03:38:38;;;;;;;43.88;32.63;;;12.90;87.30;;;;;;5048417;28;20025;-61
2022/04/14 03:41:05;;;;;;;46.17;34.28;;;12.90;87.80;;;;;;5044545;28;20040;-60
2022/04/14 03:43:35;;;;;;;44.42;34.67;;;12.90;87.10;;;;;;5039187;28;20025;-60
2022/04/14 03:46:03;;;;;;;40.97;32.78;;;12.90;87.00;;;;;;5045202;28;20683;-60
2022/04/14 03:48:29;;;;;;;41.90;33.47;;;12.90;87.00;;;;;;5043459;28;20040;-61
2022/04/14 03:50:55;;;;;;;45.83;34.95;;;12.90;86.80;;;;;;5043139;28;20506;-60
2022/04/14 03:53:21;;;;;;;44.30;34.17;;;12.80;86.60;;;;;;5029939;28;20083;-60
2022/04/14 03:55:47;;;;;;;45.08;35.42;;;12.80;86.60;;;;;;5041878;28;20057;-60
2022/04/14 03:58:14;;;;;;;45.53;35.53;;;12.80;86.70;;;;;;5026860;28;20075;-60
2022/04/14 04:00:40;;;;;;;52.38;38.10;;;12.80;86.80;;;;;;5038467;28;20036;-60
2022/04/14 04:03:09;;;;;;;63.95;38.17;;;12.80;86.90;;;;;;5044174;28;20415;-61
2022/04/14 04:05:35;;;;;;;56.83;37.38;;;12.80;87.10;;;;;;5044805;28;20104;-60
2022/04/14 04:08:02;;;;;;;59.60;37.38;;;12.80;87.20;;;;;;5036084;28;20068;-60
2022/04/14 04:10:28;;;;;;;48.83;37.58;;;12.80;87.30;;;;;;5026136;28;20067;-60
2022/04/14 04:12:53;;;;;;;52.28;37.33;;;12.80;87.50;;;;;;5037634;28;20057;-60
2022/04/14 04:15:19;;;;;;;53.58;35.75;;;12.80;87.70;;;;;;5046325;28;20028;-60
2022/04/14 04:17:46;;;;;;;76.90;36.20;;;12.80;87.80;;;;;;5044221;28;20033;-60
2022/04/14 04:20:12;;;;;;;59.10;34.28;;;12.80;87.80;;;;;;5040428;28;20392;-60
2022/04/14 04:22:37;;;;;;;68.95;33.35;;;12.80;87.90;;;;;;5043817;28;20037;-60
2022/04/14 04:25:04;;;;;;;54.63;38.13;;;12.80;88.00;;;;;;5026238;28;20112;-60
2022/04/14 04:27:30;;;;;;;48.22;33.50;;;12.70;88.20;;;;;;5042712;28;20043;-60
2022/04/14 04:29:55;;;;;;;51.35;33.13;;;12.70;88.20;;;;;;5025284;28;20498;-60
2022/04/14 04:32:21;;;;;;;44.55;31.75;;;12.70;88.30;;;;;;5039611;28;20026;-60
2022/04/14 04:34:47;;;;;;;58.25;34.70;;;12.70;88.20;;;;;;5041035;28;20048;-60
2022/04/14 04:37:13;;;;;;;59.25;34.53;;;12.70;88.30;;;;;;5039024;28;20453;-61
2022/04/14 04:39:38;;;;;;;57.65;31.65;;;12.70;88.30;;;;;;5046382;28;20518;-61
2022/04/14 04:42:04;;;;;;;48.10;33.95;;;12.60;88.30;;;;;;5037092;28;20381;-60
2022/04/14 04:44:30;;;;;;;48.25;30.77;;;12.70;88.40;;;;;;5045749;28;20025;-60
2022/04/14 04:46:55;;;;;;;85.22;31.90;;;12.60;88.30;;;;;;5041854;28;20454;-60
2022/04/14 04:49:21;;;;;;;57.85;31.42;;;12.60;88.50;;;;;;5047363;28;20112;-60
2022/04/14 04:51:47;;;;;;;64.25;30.17;;;12.60;88.50;;;;;;5046918;28;20115;-60
2022/04/14 04:54:12;;;;;;;54.75;28.90;;;12.50;88.50;;;;;;5014809;28;20029;-60
2022/04/14 04:56:38;;;;;;;66.38;31.10;;;12.60;88.50;;;;;;5041799;28;20128;-60
2022/04/14 04:59:03;;;;;;;64.72;28.40;;;12.50;88.70;;;;;;5047712;28;20086;-60
2022/04/14 05:01:29;;;;;;;49.38;29.15;;;12.40;88.60;;;;;;5046023;28;20037;-60
2022/04/14 05:03:55;;;;;;;55.20;30.58;;;12.40;88.70;;;;;;5042312;28;20059;-60
2022/04/14 05:06:20;;;;;;;54.00;30.52;;;12.40;88.70;;;;;;5043657;28;20067;-60
2022/04/14 05:08:49;;;;;;;55.33;29.77;;;12.40;88.80;;;;;;5047691;28;20441;-60
2022/04/14 05:11:15;;;;;;;122.53;28.13;;;12.40;88.80;;;;;;5044616;28;20087;-60
2022/04/14 05:13:40;;;;;;;44.67;20.52;;;12.40;88.70;;;;;;5042266;28;20450;-60
2022/04/14 05:16:07;;;;;;;33.78;16.02;;;12.40;88.70;;;;;;5041240;28;20074;-60
2022/04/14 05:18:35;;;;;;;25.98;10.73;;;12.30;88.60;;;;;;5040019;28;20045;-60
2022/04/14 05:21:01;;;;;;;18.92;10.02;;;12.30;88.60;;;;;;5025560;28;20029;-60
2022/04/14 05:23:27;;;;;;;16.88;9.57;;;12.30;88.80;;;;;;5036414;28;20029;-61
2022/04/14 05:25:54;;;;;;;13.32;7.07;;;12.30;88.80;;;;;;5045017;28;20044;-60
2022/04/14 05:28:20;;;;;;;9.70;4.47;;;12.20;88.90;;;;;;5026850;28;20037;-60
2022/04/14 05:30:46;;;;;;;11.10;4.80;;;12.20;88.80;;;;;;5040375;28;20114;-61
2022/04/14 05:33:13;;;;;;;9.68;5.72;;;12.30;89.10;;;;;;5036092;28;20044;-59
2022/04/14 05:35:39;;;;;;;10.00;4.25;;;12.30;89.00;;;;;;5031093;28;20048;-59
2022/04/14 05:38:06;;;;;;;10.10;5.53;;;12.30;88.90;;;;;;5046308;28;20056;-59
2022/04/14 05:40:33;;;;;;;8.18;4.57;;;12.30;88.90;;;;;;5043150;28;20459;-59
2022/04/14 05:42:58;;;;;;;10.93;5.57;;;12.30;88.90;;;;;;5049730;28;20116;-59
2022/04/14 05:45:25;;;;;;;8.43;4.38;;;12.20;88.80;;;;;;5030224;28;20120;-59
2022/04/14 05:47:51;;;;;;;9.27;4.20;;;12.20;88.80;;;;;;5045571;28;20040;-59
2022/04/14 05:50:17;;;;;;;6.13;3.72;;;12.20;88.80;;;;;;5048995;28;20537;-60
2022/04/14 05:52:42;;;;;;;10.60;4.10;;;12.20;88.70;;;;;;5044335;28;20129;-59
2022/04/14 05:55:09;;;;;;;9.35;5.25;;;12.20;88.80;;;;;;5050813;28;20504;-59
2022/04/14 05:57:35;;;;;;;10.48;5.57;;;12.20;88.80;;;;;;5031059;28;20033;-60
2022/04/14 06:00:01;;;;;;;11.02;4.60;;;12.30;88.80;;;;;;5050201;28;20337;-59
2022/04/14 06:02:26;;;;;;;9.52;4.55;;;12.30;88.80;;;;;;5048254;28;20029;-60
2022/04/14 06:04:53;;;;;;;9.38;4.15;;;12.30;88.70;;;;;;5043929;28;20400;-59
2022/04/14 06:07:18;;;;;;;10.57;5.25;;;12.30;88.60;;;;;;5047665;28;20104;-59
2022/04/14 06:09:44;;;;;;;8.38;4.25;;;12.30;88.60;;;;;;5025596;28;20123;-58
2022/04/14 06:12:10;;;;;;;9.57;4.28;;;12.30;88.70;;;;;;5027207;28;20079;-58
2022/04/14 06:14:36;;;;;;;11.02;5.70;;;12.30;88.70;;;;;;5039090;28;20044;-59
2022/04/14 06:17:02;;;;;;;10.15;5.05;;;12.30;88.70;;;;;;5044357;28;20029;-59
2022/04/14 06:19:27;;;;;;;10.27;5.05;;;12.30;88.90;;;;;;5046732;28;20033;-60
2022/04/14 06:21:53;;;;;;;9.25;4.78;;;12.30;88.80;;;;;;5027948;28;20036;-59
2022/04/14 06:24:18;;;;;;;10.73;5.38;;;12.30;88.70;;;;;;5043242;28;20360;-60
2022/04/14 06:26:44;;;;;;;15.57;6.00;;;12.30;88.70;;;;;;5042794;28;20067;-60
2022/04/14 06:29:10;;;;;;;11.68;4.95;;;12.30;88.60;;;;;;5041041;28;20483;-60
2022/04/14 06:31:37;;;;;;;15.60;5.68;;;12.40;88.70;;;;;;5040906;28;20029;-60
2022/04/14 06:34:05;;;;;;;9.40;5.30;;;12.40;88.50;;;;;;5046872;28;20041;-60
2022/04/14 06:36:31;;;;;;;11.90;5.82;;;12.40;88.40;;;;;;5044851;28;20077;-60
2022/04/14 06:38:57;;;;;;;9.13;4.85;;;12.40;88.50;;;;;;5040806;28;20031;-60
2022/04/14 06:41:23;;;;;;;11.63;4.78;;;12.40;88.40;;;;;;5047113;28;20025;-60
2022/04/14 06:43:49;;;;;;;9.32;4.38;;;12.40;88.30;;;;;;5045502;28;20029;-60
2022/04/14 06:46:16;;;;;;;13.68;5.47;;;12.40;88.40;;;;;;5024365;28;20033;-60
2022/04/14 06:48:42;;;;;;;7.40;4.70;;;12.40;88.40;;;;;;5044390;28;20170;-60
2022/04/14 06:51:08;;;;;;;7.18;4.60;;;12.50;88.40;;;;;;5038810;28;20028;-60
2022/04/14 06:53:34;;;;;;;12.95;4.93;;;12.60;88.30;;;;;;5030352;28;20045;-59
2022/04/14 06:56:00;;;;;;;9.75;4.60;;;12.60;88.30;;;;;;5045622;28;20029;-60
2022/04/14 06:58:25;;;;;;;10.07;4.90;;;12.70;88.10;;;;;;5045428;28;20392;-60
2022/04/14 07:00:51;;;;;;;9.80;5.43;;;12.60;87.80;;;;;;5044547;28;20519;-60
2022/04/14 07:03:17;;;;;;;11.20;4.88;;;12.60;87.70;;;;;;5042825;28;20365;-60
2022/04/14 07:05:42;;;;;;;9.52;4.00;;;12.60;87.70;;;;;;5025507;28;20044;-60
2022/04/14 07:08:08;;;;;;;14.23;5.30;;;12.60;87.60;;;;;;5040694;28;20057;-59
2022/04/14 07:10:34;;;;;;;9.82;5.93;;;12.60;87.60;;;;;;5046669;28;20044;-60
2022/04/14 07:12:59;;;;;;;9.13;3.92;;;12.60;87.70;;;;;;5046779;28;20058;-60
2022/04/14 07:15:25;;;;;;;11.43;5.55;;;12.70;87.70;;;;;;5047058;28;20025;-59
2022/04/14 07:17:51;;;;;;;8.77;4.65;;;12.60;87.50;;;;;;5044799;28;20029;-61
2022/04/14 07:20:16;;;;;;;6.88;4.10;;;12.70;87.50;;;;;;5048224;28;20102;-60
2022/04/14 07:22:51;;;;;;;8.68;3.83;;;12.70;87.50;;;;;;5047888;28;20033;-60
2022/04/14 07:25:17;;;;;;;6.82;3.53;;;12.70;87.50;;;;;;5043904;28;20087;-60
2022/04/14 07:27:43;;;;;;;8.00;3.88;;;12.80;87.40;;;;;;5043837;28;20040;-60
2022/04/14 07:30:10;;;;;;;8.50;4.22;;;12.80;87.40;;;;;;5041639;28;20104;-60
2022/04/14 07:32:38;;;;;;;7.00;4.25;;;12.90;87.90;;;;;;5043230;28;20037;-60
2022/04/14 07:35:04;;;;;;;7.38;3.30;;;12.90;87.20;;;;;;5045100;28;20097;-60
2022/04/14 07:37:31;;;;;;;8.88;4.28;;;13.00;87.10;;;;;;5047966;28;20033;-61
2022/04/14 07:39:57;;;;;;;8.98;4.72;;;13.00;87.10;;;;;;5046228;28;20021;-60
2022/04/14 07:42:34;;;;;;;9.68;5.28;;;13.10;87.10;;;;;;5046325;28;20040;-60
2022/04/14 07:45:00;;;;;;;9.35;4.57;;;13.10;86.90;;;;;;5045864;28;20346;-60
2022/04/14 07:47:25;;;;;;;10.70;4.78;;;13.20;86.80;;;;;;5046023;28;20036;-60
2022/04/14 07:49:51;;;;;;;8.48;5.35;;;13.20;86.50;;;;;;5046512;28;20064;-60
2022/04/14 07:52:17;;;;;;;7.32;4.65;;;13.30;86.60;;;;;;5046040;28;20482;-60
2022/04/14 07:54:44;;;;;;;8.05;4.97;;;13.40;86.50;;;;;;5043112;28;20056;-60
2022/04/14 07:57:10;;;;;;;9.68;4.80;;;13.40;86.40;;;;;;5040964;28;20149;-60
2022/04/14 07:59:36;;;;;;;7.50;5.13;;;13.40;86.30;;;;;;5047042;28;20103;-60
2022/04/14 08:02:02;;;;;;;6.78;3.40;;;13.50;86.20;;;;;;5046823;28;20323;-60
2022/04/14 08:04:28;;;;;;;10.00;5.30;;;13.60;86.20;;;;;;5047888;28;20024;-60
2022/04/14 08:06:54;;;;;;;10.25;4.82;;;13.70;85.80;;;;;;5044928;28;20025;-60
2022/04/14 08:09:20;;;;;;;7.07;4.53;;;13.70;85.70;;;;;;5048032;28;20040;-60
2022/04/14 08:11:46;;;;;;;6.13;3.80;;;13.80;85.40;;;;;;5045670;28;20044;-60
2022/04/14 08:14:12;;;;;;;8.63;4.38;;;13.80;85.30;;;;;;5046819;28;20037;-60
2022/04/14 08:16:38;;;;;;;8.30;4.50;;;13.90;85.00;;;;;;5047836;28;20029;-60
2022/04/14 08:19:04;;;;;;;10.00;5.15;;;13.90;84.80;;;;;;5044818;28;20045;-60
2022/04/14 08:21:29;;;;;;;8.18;4.53;;;14.00;84.10;;;;;;5032990;28;20108;-59
2022/04/14 08:23:56;;;;;;;6.55;4.13;;;14.10;84.00;;;;;;5043511;28;20033;-60
2022/04/14 08:26:21;;;;;;;8.05;4.85;;;14.20;83.90;;;;;;5053685;28;20032;-60
2022/04/14 08:28:47;;;;;;;6.35;3.63;;;14.30;83.50;;;;;;5046650;28;20037;-60
2022/04/14 08:31:14;;;;;;;7.57;4.40;;;14.40;83.30;;;;;;5046537;28;20033;-59
2022/04/14 08:33:41;;;;;;;9.43;4.65;;;14.40;82.70;;;;;;5056312;28;20424;-60
2022/04/14 08:36:12;;;;;;;7.97;4.07;;;14.50;82.50;;;;;;5035434;28;20044;-59
2022/04/14 08:38:40;;;;;;;8.93;5.72;;;14.50;82.20;;;;;;5042196;28;20029;-59
2022/04/14 08:41:08;;;;;;;6.28;4.30;;;14.60;82.10;;;;;;5043389;28;20427;-60
2022/04/14 08:43:35;;;;;;;7.15;3.80;;;14.60;81.70;;;;;;5044545;28;20044;-60
2022/04/14 08:46:06;;;;;;;5.53;3.40;;;14.70;81.40;;;;;;5044073;28;20037;-60
2022/04/14 08:48:34;;;;;;;5.72;3.60;;;14.70;81.30;;;;;;5044835;28;20074;-60
2022/04/14 08:51:01;;;;;;;6.78;4.00;;;14.80;81.40;;;;;;5036203;28;20033;-60
2022/04/14 08:53:27;;;;;;;7.50;3.25;;;14.80;80.20;;;;;;5045257;28;20043;-60
2022/04/14 08:55:53;;;;;;;6.20;3.10;;;14.80;80.10;;;;;;5035715;28;20025;-60
2022/04/14 08:58:22;;;;;;;6.53;3.75;;;14.80;79.90;;;;;;5042134;28;20037;-60
2022/04/14 09:00:49;;;;;;;7.85;3.30;;;14.80;79.90;;;;;;5041541;28;20029;-60
2022/04/14 09:03:18;;;;;;;4.93;2.97;;;14.90;80.10;;;;;;5043718;28;20044;-60
2022/04/14 09:05:44;;;;;;;4.88;2.92;;;15.00;79.40;;;;;;5044708;28;20128;-60
2022/04/14 09:08:09;;;;;;;7.47;4.13;;;15.00;79.50;;;;;;4998167;28;20136;-60
2022/04/14 09:10:36;;;;;;;6.88;3.20;;;15.10;79.50;;;;;;5037632;28;20033;-60
2022/04/14 09:13:01;;;;;;;4.38;2.88;;;15.10;79.20;;;;;;5037677;28;20103;-62
2022/04/14 09:15:30;;;;;;;6.35;3.53;;;15.20;79.30;;;;;;5049058;28;20156;-60
2022/04/14 09:17:56;;;;;;;6.05;3.42;;;15.30;79.00;;;;;;5040629;28;20384;-60
2022/04/14 09:20:39;;;;;;;4.72;3.00;;;15.40;79.40;;;;;;5044167;28;20036;-60
2022/04/14 09:23:23;;;;;;;4.05;2.28;;;15.50;79.00;;;;;;5044193;28;20103;-60
2022/04/14 09:25:52;;;;;;;4.43;3.00;;;15.60;78.90;;;;;;5032419;28;20088;-59
2022/04/14 09:28:20;;;;;;;3.75;2.55;;;15.80;78.00;;;;;;5040102;28;20084;-60
2022/04/14 09:31:11;;;;;;;3.72;2.50;;;15.80;76.30;;;;;;5049145;28;20036;-60
2022/04/14 09:33:45;;;;;;;6.20;3.00;;;15.90;76.70;;;;;;5043544;28;20047;-60
2022/04/14 09:36:14;;;;;;;5.90;3.45;;;16.00;76.80;;;;;;5044977;28;20025;-59
2022/04/14 09:39:07;;;;;;;4.72;2.72;;;16.10;76.30;;;;;;5047992;28;20036;-59
2022/04/14 09:41:39;;;;;;;5.05;2.67;;;16.30;75.90;;;;;;5047598;28;20036;-59
2022/04/14 09:44:09;;;;;;;2.58;2.00;;;16.30;75.00;;;;;;5046400;28;20129;-60
2022/04/14 09:46:36;;;;;;;4.13;2.42;;;16.40;75.00;;;;;;5048466;28;20108;-59
2022/04/14 09:49:08;;;;;;;3.10;2.45;;;16.60;74.90;;;;;;5054669;28;20033;-59
2022/04/14 09:51:45;;;;;;;4.70;3.08;;;16.70;74.60;;;;;;5038955;28;20020;-60
2022/04/14 09:54:17;;;;;;;3.75;2.85;;;16.80;73.30;;;;;;5050384;28;20043;-59
2022/04/14 09:56:53;;;;;;;4.35;2.60;;;16.90;73.60;;;;;;5057993;28;20025;-60
2022/04/14 09:59:29;;;;;;;3.67;2.50;;;17.00;73.40;;;;;;5048807;28;20108;-60
2022/04/14 10:02:15;;;;;;;5.05;3.42;;;17.10;73.00;;;;;;5049946;28;20112;-60
2022/04/14 10:04:43;;;;;;;5.88;3.20;;;17.20;71.90;;;;;;5031005;28;20043;-60
2022/04/14 10:07:15;;;;;;;4.13;2.60;;;17.20;72.00;;;;;;5032236;28;20140;-60
2022/04/14 10:09:43;;;;;;;6.32;2.60;;;17.30;71.70;;;;;;5039855;28;20035;-60
2022/04/14 10:12:17;;;;;;;4.20;2.65;;;17.40;71.30;;;;;;5046798;28;20028;-60
2022/04/14 10:15:05;;;;;;;3.97;2.45;;;17.40;70.90;;;;;;5056084;28;20036;-60
2022/04/14 10:17:39;;;;;;;3.53;2.30;;;17.50;70.30;;;;;;5035971;28;20362;-60
2022/04/14 10:20:07;;;;;;;4.80;2.50;;;17.50;70.10;;;;;;5055443;28;20028;-60
2022/04/14 10:22:34;;;;;;;3.17;2.22;;;17.60;69.50;;;;;;5068457;28;20085;-60
2022/04/14 10:25:01;;;;;;;6.18;2.85;;;17.70;69.20;;;;;;5052106;28;20399;-60
2022/04/14 10:27:28;;;;;;;3.90;2.60;;;17.80;68.20;;;;;;5061393;28;20031;-60
2022/04/14 10:29:54;;;;;;;4.20;3.00;;;17.90;68.50;;;;;;5032951;28;20480;-60
2022/04/14 10:32:21;;;;;;;4.40;2.30;;;18.00;68.00;;;;;;5045547;28;20021;-60
2022/04/14 10:34:48;;;;;;;4.03;2.30;;;18.20;67.50;;;;;;5054990;28;20182;-60
2022/04/14 10:37:23;;;;;;;5.50;2.88;;;18.30;67.50;;;;;;5054249;28;20468;-60
2022/04/14 10:39:49;;;;;;;3.03;2.60;;;18.40;66.40;;;;;;5046138;28;20413;-60
2022/04/14 10:42:27;;;;;;;4.32;2.45;;;18.30;66.30;;;;;;5035510;28;20123;-60
2022/04/14 10:44:54;;;;;;;6.00;2.65;;;18.40;66.90;;;;;;5050537;28;20025;-59
2022/04/14 10:47:42;;;;;;;5.13;2.30;;;18.50;66.20;;;;;;5056880;28;20514;-60
2022/04/14 10:50:26;;;;;;;5.38;2.72;;;18.60;66.00;;;;;;5031725;28;20049;-60
2022/04/14 10:53:20;;;;;;;3.00;2.50;;;18.70;64.60;;;;;;5049260;28;20464;-60
2022/04/14 10:55:48;;;;;;;2.47;1.70;;;18.80;64.40;;;;;;5061239;28;20355;-60
2022/04/14 10:58:29;;;;;;;4.15;2.33;;;18.70;65.00;;;;;;5051855;28;20078;-60
2022/04/14 11:00:56;;;;;;;4.78;2.25;;;18.70;64.30;;;;;;5047140;28;20048;-60
2022/04/14 11:03:45;;;;;;;2.72;2.03;;;18.70;64.10;;;;;;5046092;28;20487;-60
2022/04/14 11:06:40;;;;;;;4.10;1.80;;;18.60;64.20;;;;;;5032113;28;20480;-60
2022/04/14 11:09:06;;;;;;;3.65;1.85;;;18.70;64.50;;;;;;5039912;28;20028;-60
2022/04/14 11:11:59;;;;;;;3.15;1.77;;;18.70;64.80;;;;;;5045363;28;20029;-60
2022/04/14 11:14:24;;;;;;;3.85;1.48;;;18.80;64.20;;;;;;5043890;28;20025;-60
2022/04/14 11:16:50;;;;;;;2.58;1.42;;;18.80;64.80;;;;;;5045721;28;20037;-60
2022/04/14 11:19:18;;;;;;;3.10;1.25;;;19.00;64.90;;;;;;5038533;28;20032;-60
2022/04/14 11:22:02;;;;;;;1.20;0.95;;;19.20;64.50;;;;;;5046980;28;20041;-60
2022/04/14 11:24:39;;;;;;;1.38;1.20;;;19.40;63.30;;;;;;5047200;28;20470;-60
2022/04/14 11:27:25;;;;;;;2.03;1.30;;;19.40;62.10;;;;;;5045693;28;20032;-60
2022/04/14 11:29:57;;;;;;;1.20;0.77;;;19.30;60.70;;;;;;5042303;28;20086;-60
2022/04/14 11:32:36;;;;;;;1.17;0.95;;;19.30;60.90;;;;;;5026802;28;20432;-60
2022/04/14 11:35:13;;;;;;;0.85;0.75;;;19.20;61.40;;;;;;5045797;28;20857;-60
2022/04/14 11:37:43;;;;;;;1.38;0.90;;;19.10;62.20;;;;;;5052018;28;20411;-60
2022/04/14 11:40:22;;;;;;;2.85;0.60;;;19.10;61.60;;;;;;5033101;28;20108;-60
2022/04/14 11:43:00;;;;;;;0.85;0.60;;;19.00;60.40;;;;;;5041959;28;20412;-60
2022/04/14 11:45:28;;;;;;;1.35;0.85;;;18.90;60.10;;;;;;5042904;28;20033;-60
2022/04/14 11:48:00;;;;;;;1.25;0.93;;;18.90;59.90;;;;;;5049070;28;20837;-60
2022/04/14 11:50:29;;;;;;;5.00;1.45;;;18.90;59.50;;;;;;5049586;28;20090;-60
2022/04/14 11:53:03;;;;;;;1.35;0.82;;;18.80;59.90;;;;;;5049429;28;20032;-60
2022/04/14 11:55:42;;;;;;;1.45;0.98;;;18.80;59.70;;;;;;5050491;28;20116;-60
2022/04/14 11:58:13;;;;;;;1.23;0.70;;;18.80;60.00;;;;;;5049989;28;20039;-61
2022/04/14 12:00:49;;;;;;;1.48;1.08;;;19.00;60.10;;;;;;5032089;28;20078;-60
2022/04/14 12:03:34;;;;;;;1.88;1.05;;;19.00;60.50;;;;;;5031962;28;20043;-60
2022/04/14 12:06:08;;;;;;;3.72;1.00;;;19.10;60.90;;;;;;5049372;28;20072;-60
2022/04/14 12:08:34;;;;;;;2.33;1.10;;;19.10;61.30;;;;;;5049483;28;20041;-61
2022/04/14 12:11:13;;;;;;;3.45;1.77;;;19.20;61.30;;;;;;5049547;28;20105;-60
2022/04/14 12:13:40;;;;;;;2.97;1.75;;;19.50;60.50;;;;;;5044390;28;20041;-60
2022/04/14 12:16:11;;;;;;;2.50;1.90;;;19.60;60.00;;;;;;5039993;28;20041;-60
2022/04/14 12:18:39;;;;;;;1.73;1.02;;;19.40;60.00;;;;;;5025289;28;20029;-61
2022/04/14 12:21:06;;;;;;;1.73;1.20;;;19.30;60.50;;;;;;5046482;28;20033;-60
2022/04/14 12:23:33;;;;;;;1.60;1.50;;;19.20;60.20;;;;;;5035257;28;20036;-60
2022/04/14 12:26:03;;;;;;;1.42;0.82;;;19.00;60.70;;;;;;5023462;28;20031;-60
2022/04/14 12:28:30;;;;;;;1.45;0.98;;;18.90;61.30;;;;;;5040372;28;20079;-61
2022/04/14 12:30:55;;;;;;;1.35;1.17;;;18.80;61.80;;;;;;5043380;28;20036;-61
2022/04/14 12:33:26;;;;;;;2.22;1.23;;;18.70;61.90;;;;;;5045390;28;20103;-60
2022/04/14 12:36:04;;;;;;;3.13;1.27;;;18.70;62.10;;;;;;5042418;28;20392;-60
2022/04/14 12:38:29;;;;;;;2.25;1.33;;;18.60;62.00;;;;;;5040089;28;20047;-60
2022/04/14 12:40:57;;;;;;;1.48;0.82;;;18.60;62.20;;;;;;5039639;28;20040;-60
2022/04/14 12:43:26;;;;;;;4.65;1.38;;;18.60;62.30;;;;;;5046734;28;20052;-60